Time;durP1;ratioP1;P1;durP2;ratioP2;P2;SDS_P1;SDS_P2;PMS_P1;PMS_P2;Temp;Humidity;BMP_temperature;BMP_pressure;BME280_temperature;BME280_humidity;BME280_pressure;Samples;Min_cycle;Max_cycle;Signal;HPM_P1;HPM_P2
2023/10/05 00:00:47;;;;;;;2.38;0.85;;;;;;;;;;6325300;22;20019;-82
2023/10/05 00:03:13;;;;;;;;;;;;;;;;;;6296708;22;20513;-81
2023/10/05 00:05:39;;;;;;;2.97;0.90;;;;;;;;;;6322770;22;20244;-82
2023/10/05 00:08:05;;;;;;;2.40;0.82;;;;;;;;;;6322774;22;20011;-82
2023/10/05 00:10:34;;;;;;;5.47;0.93;;;;;;;;;;6323794;22;20011;-82
2023/10/05 00:13:05;;;;;;;1.65;0.90;;;;;;;;;;6322264;22;20015;-82
2023/10/05 00:15:32;;;;;;;4.47;1.58;;;;;;;;;;6322446;22;20068;-82
2023/10/05 00:17:58;;;;;;;3.47;1.08;;;;;;;;;;6323058;22;20011;-82
2023/10/05 00:20:25;;;;;;;3.45;1.05;;;;;;;;;;6294762;22;20015;-81
2023/10/05 00:22:51;;;;;;;2.40;0.82;;;;;;;;;;6294398;22;20347;-81
2023/10/05 00:25:18;;;;;;;3.47;0.80;;;;;;;;;;6294731;22;20019;-81
2023/10/05 00:27:45;;;;;;;2.40;0.90;;;;;;;;;;6296921;22;20094;-82
2023/10/05 00:30:16;;;;;;;3.00;1.15;;;;;;;;;;6295699;22;20019;-82
2023/10/05 00:32:47;;;;;;;4.25;0.90;;;;;;;;;;6323926;22;20019;-82
2023/10/05 00:35:20;;;;;;;2.45;0.80;;;;;;;;;;6322272;22;20018;-82
2023/10/05 00:37:48;;;;;;;2.35;0.90;;;;;;;;;;6296860;22;20011;-82
2023/10/05 00:40:33;;;;;;;3.90;0.95;;;;;;;;;;6323179;22;20015;-82
2023/10/05 00:43:04;;;;;;;5.15;1.50;;;;;;;;;;6296687;22;20019;-82
2023/10/05 00:45:31;;;;;;;2.55;0.90;;;;;;;;;;6296191;22;20086;-82
2023/10/05 00:48:02;;;;;;;1.55;0.95;;;;;;;;;;6321877;22;20053;-82
2023/10/05 00:50:28;;;;;;;3.88;0.98;;;;;;;;;;6294673;22;20019;-82
2023/10/05 00:52:54;;;;;;;2.33;1.08;;;;;;;;;;6323046;22;20015;-82
2023/10/05 00:55:22;;;;;;;3.33;0.88;;;;;;;;;;6295793;22;20015;-82
2023/10/05 00:57:48;;;;;;;2.50;1.10;;;;;;;;;;6296607;22;20015;-81
2023/10/05 01:00:27;;;;;;;2.67;1.17;;;;;;;;;;6322880;22;20042;-82
2023/10/05 01:03:17;;;;;;;3.38;1.27;;;;;;;;;;6294521;22;20026;-82
2023/10/05 01:06:01;;;;;;;4.20;0.93;;;;;;;;;;6322731;22;20011;-82
2023/10/05 01:08:31;;;;;;;3.85;1.00;;;;;;;;;;6321952;22;20015;-82
2023/10/05 01:10:58;;;;;;;3.10;0.82;;;;;;;;;;6324153;22;20019;-81
2023/10/05 01:13:32;;;;;;;4.07;0.98;;;;;;;;;;6300471;22;20055;-81
2023/10/05 01:15:59;;;;;;;2.92;1.13;;;;;;;;;;6327212;22;20084;-82
2023/10/05 01:18:26;;;;;;;4.03;1.05;;;;;;;;;;6300829;22;20057;-82
2023/10/05 01:20:53;;;;;;;5.03;1.00;;;;;;;;;;6324156;22;20015;-82
2023/10/05 01:23:28;;;;;;;5.90;1.00;;;;;;;;;;6295144;22;20071;-82
2023/10/05 01:25:55;;;;;;;2.42;1.10;;;;;;;;;;6272259;22;20043;-82
2023/10/05 01:28:21;;;;;;;3.78;1.25;;;;;;;;;;6295667;22;20046;-82
2023/10/05 01:30:47;;;;;;;5.32;1.15;;;;;;;;;;6295265;22;20011;-81
2023/10/05 01:33:13;;;;;;;3.20;1.40;;;;;;;;;;6266577;22;20509;-81
2023/10/05 01:35:43;;;;;;;2.75;1.17;;;;;;;;;;6292976;22;20011;-82
2023/10/05 01:38:11;;;;;;;4.10;1.08;;;;;;;;;;6269321;22;20015;-82
2023/10/05 01:40:37;;;;;;;7.90;1.17;;;;;;;;;;6322305;22;20035;-82
2023/10/05 01:43:04;;;;;;;3.80;1.25;;;;;;;;;;6295199;22;20022;-81
2023/10/05 01:45:33;;;;;;;3.33;1.13;;;;;;;;;;6292956;22;20022;-82
2023/10/05 01:48:04;;;;;;;3.85;1.00;;;;;;;;;;6293042;22;20026;-82
2023/10/05 01:50:32;;;;;;;3.42;1.10;;;;;;;;;;6268462;22;20022;-82
2023/10/05 01:53:15;;;;;;;3.42;1.30;;;;;;;;;;6319922;22;20018;-82
2023/10/05 01:55:44;;;;;;;3.88;1.25;;;;;;;;;;6323518;22;20015;-81
2023/10/05 01:58:13;;;;;;;2.85;1.25;;;;;;;;;;6321982;22;20042;-81
2023/10/05 02:00:40;;;;;;;4.70;1.23;;;;;;;;;;6294506;22;20015;-82
2023/10/05 02:03:11;;;;;;;3.75;1.17;;;;;;;;;;6293266;22;20108;-82
2023/10/05 02:05:37;;;;;;;4.32;0.90;;;;;;;;;;6295337;22;20015;-82
2023/10/05 02:08:04;;;;;;;5.03;1.15;;;;;;;;;;6294686;22;20091;-82
2023/10/05 02:10:34;;;;;;;2.90;0.90;;;;;;;;;;6269872;22;20019;-82
2023/10/05 02:13:04;;;;;;;5.43;1.15;;;;;;;;;;6322136;22;20038;-81
2023/10/05 02:15:29;;;;;;;3.65;1.33;;;;;;;;;;6322472;22;20015;-82
2023/10/05 02:17:57;;;;;;;2.22;0.90;;;;;;;;;;6323149;22;20038;-82
2023/10/05 02:22:58;;;;;;;4.47;1.08;;;;;;;;;;6323636;22;20043;-82
2023/10/05 02:25:34;;;;;;;2.58;0.88;;;;;;;;;;6324041;22;20047;-82
2023/10/05 02:28:00;;;;;;;2.55;0.93;;;;;;;;;;6322612;22;20064;-82
2023/10/05 02:30:27;;;;;;;2.00;0.90;;;;;;;;;;6296399;22;20070;-82
2023/10/05 02:32:58;;;;;;;5.13;1.10;;;;;;;;;;6296311;22;20464;-82
2023/10/05 02:35:30;;;;;;;4.10;1.15;;;;;;;;;;6295797;22;20015;-82
2023/10/05 02:37:58;;;;;;;3.22;1.25;;;;;;;;;;6326065;22;20011;-82
2023/10/05 02:40:35;;;;;;;1.58;0.90;;;;;;;;;;6325292;22;20011;-82
2023/10/05 02:43:09;;;;;;;3.47;1.05;;;;;;;;;;6297434;22;20046;-82
2023/10/05 02:45:38;;;;;;;6.00;1.52;;;;;;;;;;6298444;22;20116;-82
2023/10/05 02:48:10;;;;;;;2.58;1.00;;;;;;;;;;6298270;22;20027;-82
2023/10/05 02:50:40;;;;;;;5.13;1.00;;;;;;;;;;6298592;22;20011;-82
2023/10/05 02:53:06;;;;;;;3.53;1.42;;;;;;;;;;6296983;22;20022;-82
2023/10/05 02:55:36;;;;;;;3.17;0.98;;;;;;;;;;6296516;22;20012;-82
2023/10/05 02:58:04;;;;;;;2.55;0.90;;;;;;;;;;6296841;22;20051;-82
2023/10/05 03:00:33;;;;;;;3.05;1.15;;;;;;;;;;6296919;22;20015;-82
2023/10/05 03:03:02;;;;;;;3.35;0.90;;;;;;;;;;6296909;22;20019;-82
2023/10/05 03:05:28;;;;;;;3.10;1.20;;;;;;;;;;6295905;22;20015;-82
2023/10/05 03:07:54;;;;;;;3.03;1.00;;;;;;;;;;6295894;22;20031;-82
2023/10/05 03:10:23;;;;;;;3.17;0.90;;;;;;;;;;6295653;22;20379;-82
2023/10/05 03:12:49;;;;;;;3.05;0.88;;;;;;;;;;6297732;22;20015;-82
2023/10/05 03:15:15;;;;;;;2.53;1.00;;;;;;;;;;6297773;22;20018;-82
2023/10/05 03:17:45;;;;;;;5.65;1.50;;;;;;;;;;6298874;22;20015;-82
2023/10/05 03:20:17;;;;;;;2.97;1.00;;;;;;;;;;6323961;22;20553;-82
2023/10/05 03:22:46;;;;;;;3.15;1.13;;;;;;;;;;6322988;22;20027;-83
2023/10/05 03:25:14;;;;;;;2.53;1.05;;;;;;;;;;6269425;22;20025;-82
2023/10/05 03:27:41;;;;;;;2.33;0.95;;;;;;;;;;6323081;22;20011;-82
2023/10/05 03:30:13;;;;;;;3.88;1.90;;;;;;;;;;6295635;22;20012;-81
2023/10/05 03:32:40;;;;;;;1.10;0.90;;;;;;;;;;6322129;22;20045;-82
2023/10/05 03:35:09;;;;;;;2.90;1.17;;;;;;;;;;6321694;22;20037;-82
2023/10/05 03:37:39;;;;;;;4.20;1.20;;;;;;;;;;6294322;22;20016;-82
2023/10/05 03:42:31;;;;;;;4.30;0.98;;;;;;;;;;6297063;22;20020;-81
2023/10/05 03:45:03;;;;;;;1.95;1.20;;;;;;;;;;6296433;22;20017;-81
2023/10/05 03:47:37;;;;;;;2.78;1.25;;;;;;;;;;6324419;22;20013;-82
2023/10/05 03:50:03;;;;;;;2.05;1.10;;;;;;;;;;6294377;22;20023;-82
2023/10/05 03:52:29;;;;;;;7.40;1.77;;;;;;;;;;6324483;22;20141;-82
2023/10/05 03:55:11;;;;;;;3.08;1.10;;;;;;;;;;6324062;22;20011;-82
2023/10/05 03:57:41;;;;;;;4.35;1.50;;;;;;;;;;6295634;22;20018;-82
2023/10/05 04:02:47;;;;;;;2.97;1.23;;;;;;;;;;6323746;22;20019;-82
2023/10/05 04:05:17;;;;;;;5.22;1.17;;;;;;;;;;6322410;22;20034;-82
2023/10/05 04:07:43;;;;;;;5.57;1.48;;;;;;;;;;6295390;22;20085;-82
2023/10/05 04:10:13;;;;;;;3.63;1.45;;;;;;;;;;6296029;22;20096;-82
2023/10/05 04:12:40;;;;;;;3.13;1.02;;;;;;;;;;6297877;22;20019;-82
2023/10/05 04:15:09;;;;;;;2.22;1.02;;;;;;;;;;6323718;22;20079;-81
2023/10/05 04:17:36;;;;;;;4.45;1.83;;;;;;;;;;6324465;22;20012;-82
2023/10/05 04:20:06;;;;;;;4.18;1.20;;;;;;;;;;6325043;22;20035;-82
2023/10/05 04:22:32;;;;;;;3.58;1.13;;;;;;;;;;6323421;22;20036;-82
2023/10/05 04:24:58;;;;;;;2.90;1.10;;;;;;;;;;6322773;22;20015;-82
2023/10/05 04:27:25;;;;;;;4.22;1.00;;;;;;;;;;6323413;22;20072;-82
2023/10/05 04:29:51;;;;;;;5.03;1.33;;;;;;;;;;6323755;22;20011;-82
2023/10/05 04:32:18;;;;;;;1.52;1.10;;;;;;;;;;6322026;22;20023;-82
2023/10/05 04:34:44;;;;;;;3.72;1.38;;;;;;;;;;6322252;22;20015;-82
2023/10/05 04:37:12;;;;;;;3.75;1.25;;;;;;;;;;6293742;22;20007;-82
2023/10/05 04:39:38;;;;;;;2.15;0.95;;;;;;;;;;6295815;22;20012;-82
2023/10/05 04:42:11;;;;;;;3.65;1.80;;;;;;;;;;6293304;22;20038;-82
2023/10/05 04:44:38;;;;;;;3.10;1.10;;;;;;;;;;6322794;22;20007;-82
2023/10/05 04:47:04;;;;;;;3.28;1.48;;;;;;;;;;6322124;22;20023;-82
2023/10/05 04:49:31;;;;;;;5.70;1.42;;;;;;;;;;6291987;22;20108;-81
2023/10/05 04:51:59;;;;;;;3.10;1.33;;;;;;;;;;6293254;22;20015;-81
2023/10/05 04:54:26;;;;;;;4.38;1.00;;;;;;;;;;6293437;22;20035;-81
2023/10/05 04:57:07;;;;;;;5.07;1.35;;;;;;;;;;6295840;22;20086;-82
2023/10/05 05:02:12;;;;;;;3.40;1.17;;;;;;;;;;6291862;22;20019;-82
2023/10/05 05:04:52;;;;;;;3.78;1.27;;;;;;;;;;6296554;22;20022;-81
2023/10/05 05:07:21;;;;;;;5.28;1.50;;;;;;;;;;6266968;22;20007;-82
2023/10/05 05:09:47;;;;;;;7.70;2.00;;;;;;;;;;6294544;22;20007;-82
2023/10/05 05:12:17;;;;;;;5.20;1.20;;;;;;;;;;6318781;22;20015;-81
2023/10/05 05:14:44;;;;;;;4.35;1.50;;;;;;;;;;6292149;22;20021;-82
2023/10/05 05:17:23;;;;;;;2.97;1.30;;;;;;;;;;6319880;22;20013;-85
2023/10/05 05:19:52;;;;;;;1.65;0.90;;;;;;;;;;6251500;22;20041;-84
2023/10/05 05:22:18;;;;;;;5.22;1.45;;;;;;;;;;6305500;22;20015;-85
2023/10/05 05:24:45;;;;;;;4.53;1.20;;;;;;;;;;6282762;22;20015;-83
2023/10/05 05:29:44;;;;;;;5.75;1.85;;;;;;;;;;6280563;22;20021;-82
2023/10/05 05:32:10;;;;;;;5.45;1.70;;;;;;;;;;6256997;22;20011;-83
2023/10/05 05:34:43;;;;;;;5.70;2.08;;;;;;;;;;6257480;22;20133;-83
2023/10/05 05:37:13;;;;;;;4.15;1.23;;;;;;;;;;6256029;22;20030;-83
2023/10/05 05:39:42;;;;;;;3.38;1.40;;;;;;;;;;6283682;22;20318;-83
2023/10/05 05:42:15;;;;;;;3.92;1.48;;;;;;;;;;6255341;22;20019;-84
2023/10/05 05:44:42;;;;;;;3.50;1.27;;;;;;;;;;6311084;22;20011;-83
2023/10/05 05:47:14;;;;;;;2.80;1.30;;;;;;;;;;6256714;22;20026;-84
2023/10/05 05:49:46;;;;;;;3.35;1.40;;;;;;;;;;6287462;22;20344;-82
2023/10/05 05:52:13;;;;;;;2.83;1.13;;;;;;;;;;6314419;22;20026;-84
2023/10/05 05:54:46;;;;;;;5.97;1.60;;;;;;;;;;6289060;22;20445;-84
2023/10/05 05:57:12;;;;;;;6.93;1.35;;;;;;;;;;6261440;22;20013;-84
2023/10/05 05:59:39;;;;;;;3.20;1.55;;;;;;;;;;6313693;22;20011;-84
2023/10/05 06:02:08;;;;;;;4.82;1.27;;;;;;;;;;6281316;22;20023;-84
2023/10/05 06:04:35;;;;;;;9.43;1.40;;;;;;;;;;6259108;22;20115;-83
2023/10/05 06:07:04;;;;;;;7.22;1.48;;;;;;;;;;6314713;22;20079;-83
2023/10/05 06:09:33;;;;;;;3.20;1.25;;;;;;;;;;6289373;22;20019;-83
2023/10/05 06:12:00;;;;;;;3.80;1.50;;;;;;;;;;6315268;22;20520;-85
2023/10/05 06:14:32;;;;;;;5.97;1.33;;;;;;;;;;6284132;22;20015;-83
2023/10/05 06:16:59;;;;;;;3.63;1.20;;;;;;;;;;6316832;22;20011;-83
2023/10/05 06:19:28;;;;;;;4.95;1.27;;;;;;;;;;6318109;22;20406;-84
2023/10/05 06:21:54;;;;;;;3.33;1.48;;;;;;;;;;6316434;22;20452;-84
2023/10/05 06:24:20;;;;;;;3.85;1.60;;;;;;;;;;6290980;22;20080;-83
2023/10/05 06:26:46;;;;;;;2.95;1.10;;;;;;;;;;6319107;22;20045;-83
2023/10/05 06:29:13;;;;;;;2.42;1.20;;;;;;;;;;6289684;22;20390;-83
2023/10/05 06:31:40;;;;;;;5.53;1.75;;;;;;;;;;6290596;22;20019;-83
2023/10/05 06:34:10;;;;;;;5.68;1.40;;;;;;;;;;6290543;22;20012;-83
2023/10/05 06:36:42;;;;;;;4.20;1.35;;;;;;;;;;6318775;22;20340;-83
2023/10/05 06:39:14;;;;;;;6.80;1.65;;;;;;;;;;6317112;22;20088;-83
2023/10/05 06:41:40;;;;;;;4.70;1.55;;;;;;;;;;6290440;22;20041;-83
2023/10/05 06:44:10;;;;;;;4.63;1.40;;;;;;;;;;6318142;22;20019;-83
2023/10/05 06:46:36;;;;;;;;;;;;;;;;;;6288626;22;20021;-82
2023/10/05 06:49:05;;;;;;;7.65;2.13;;;;;;;;;;6285480;22;19978;-84
2023/10/05 06:51:31;;;;;;;3.58;1.20;;;;;;;;;;6315666;22;20086;-84
2023/10/05 06:53:57;;;;;;;6.05;1.50;;;;;;;;;;6285864;22;20144;-86
2023/10/05 06:56:24;;;;;;;4.38;1.30;;;;;;;;;;6275867;22;20514;-85
2023/10/05 06:58:50;;;;;;;5.03;1.60;;;;;;;;;;6309766;22;20011;-82
2023/10/05 07:01:20;;;;;;;7.40;1.83;;;;;;;;;;6315732;22;20015;-81
2023/10/05 07:03:52;;;;;;;9.48;1.80;;;;;;;;;;6317379;22;20019;-81
2023/10/05 07:06:18;;;;;;;6.90;2.20;;;;;;;;;;6317733;22;20039;-82
2023/10/05 07:08:46;;;;;;;4.05;1.48;;;;;;;;;;6316694;22;20067;-81
2023/10/05 07:11:12;;;;;;;3.67;1.50;;;;;;;;;;6317442;22;20078;-81
2023/10/05 07:13:38;;;;;;;6.55;1.73;;;;;;;;;;6316846;22;20007;-81
2023/10/05 07:16:05;;;;;;;3.10;1.20;;;;;;;;;;6260607;22;20091;-81
2023/10/05 07:18:31;;;;;;;4.78;1.63;;;;;;;;;;6290613;22;20432;-81
2023/10/05 07:20:57;;;;;;;4.20;1.13;;;;;;;;;;6288311;22;20019;-81
2023/10/05 07:23:24;;;;;;;7.28;1.80;;;;;;;;;;6291490;22;20026;-81
2023/10/05 07:25:50;;;;;;;3.83;1.60;;;;;;;;;;6292293;22;20019;-81
2023/10/05 07:28:16;;;;;;;4.18;1.40;;;;;;;;;;6265479;22;20047;-82
2023/10/05 07:30:44;;;;;;;5.63;1.73;;;;;;;;;;6294171;22;20502;-81
2023/10/05 07:33:11;;;;;;;5.18;1.50;;;;;;;;;;6291904;22;20012;-82
2023/10/05 07:35:39;;;;;;;5.13;1.88;;;;;;;;;;6293327;22;20039;-82
2023/10/05 07:38:06;;;;;;;4.38;1.27;;;;;;;;;;6288022;22;20037;-82
2023/10/05 07:40:34;;;;;;;5.82;1.70;;;;;;;;;;6291738;22;20044;-82
2023/10/05 07:43:00;;;;;;;4.95;1.60;;;;;;;;;;6272005;22;20003;-82
2023/10/05 07:45:26;;;;;;;4.72;1.45;;;;;;;;;;6304134;22;20045;-82
2023/10/05 07:47:52;;;;;;;2.20;1.52;;;;;;;;;;6305133;22;20043;-83
2023/10/05 07:50:18;;;;;;;3.03;1.95;;;;;;;;;;6302760;22;20004;-82
2023/10/05 07:52:45;;;;;;;5.53;1.85;;;;;;;;;;6300564;22;20015;-80
2023/10/05 07:55:11;;;;;;;3.13;1.75;;;;;;;;;;6300106;22;20064;-81
2023/10/05 07:57:37;;;;;;;4.20;1.45;;;;;;;;;;6328530;22;20035;-79
2023/10/05 08:00:04;;;;;;;4.25;1.42;;;;;;;;;;6320999;22;20061;-81
2023/10/05 08:02:31;;;;;;;6.05;1.50;;;;;;;;;;6319914;22;20023;-80
2023/10/05 08:04:57;;;;;;;5.07;1.55;;;;;;;;;;6290653;22;20022;-80
2023/10/05 08:07:23;;;;;;;8.48;2.58;;;;;;;;;;6319177;22;20063;-81
2023/10/05 08:09:49;;;;;;;4.82;1.90;;;;;;;;;;6291288;22;20074;-81
2023/10/05 08:12:15;;;;;;;9.35;2.08;;;;;;;;;;6292150;22;20012;-80
2023/10/05 08:14:41;;;;;;;5.32;1.60;;;;;;;;;;6293174;22;20114;-80
2023/10/05 08:17:07;;;;;;;5.88;1.77;;;;;;;;;;6273860;22;20019;-81
2023/10/05 08:19:33;;;;;;;5.28;1.98;;;;;;;;;;6294169;22;20097;-80
2023/10/05 08:22:00;;;;;;;3.42;1.58;;;;;;;;;;6287550;22;20060;-82
2023/10/05 08:24:31;;;;;;;8.40;2.53;;;;;;;;;;6312813;22;20090;-80
2023/10/05 08:26:57;;;;;;;5.18;1.67;;;;;;;;;;6279625;22;20078;-80
2023/10/05 08:29:24;;;;;;;5.30;1.67;;;;;;;;;;6282318;22;20447;-81
2023/10/05 08:31:51;;;;;;;6.00;1.75;;;;;;;;;;6308931;22;20087;-81
2023/10/05 08:34:22;;;;;;;6.43;2.00;;;;;;;;;;6288144;22;20023;-80
2023/10/05 08:36:49;;;;;;;4.95;1.52;;;;;;;;;;6282806;22;20058;-81
2023/10/05 08:39:21;;;;;;;5.47;2.05;;;;;;;;;;6284643;22;20018;-82
2023/10/05 08:41:48;;;;;;;4.85;2.17;;;;;;;;;;6308506;22;20317;-81
2023/10/05 08:44:26;;;;;;;7.30;2.58;;;;;;;;;;6308141;22;20050;-81
2023/10/05 08:46:52;;;;;;;4.00;1.65;;;;;;;;;;6280663;22;20019;-80
2023/10/05 08:49:19;;;;;;;7.57;1.85;;;;;;;;;;6288247;22;20012;-80
2023/10/05 08:51:45;;;;;;;7.63;1.70;;;;;;;;;;6287157;22;20041;-84
2023/10/05 08:54:13;;;;;;;5.90;1.80;;;;;;;;;;6282977;22;20011;-81
2023/10/05 08:56:47;;;;;;;7.25;2.22;;;;;;;;;;6313274;22;20049;-82
2023/10/05 08:59:13;;;;;;;5.65;1.60;;;;;;;;;;6284043;22;20078;-83
2023/10/05 09:01:42;;;;;;;4.80;1.90;;;;;;;;;;6285240;22;20079;-82
2023/10/05 09:06:59;;;;;;;7.10;1.88;;;;;;;;;;6310908;22;20041;-82
2023/10/05 09:09:28;;;;;;;7.47;2.00;;;;;;;;;;6310648;22;20015;-82
2023/10/05 09:11:57;;;;;;;5.93;1.80;;;;;;;;;;6284053;22;20018;-82
2023/10/05 09:14:27;;;;;;;10.45;1.73;;;;;;;;;;6311124;22;20012;-83
2023/10/05 09:17:07;;;;;;;7.20;2.25;;;;;;;;;;6280881;22;20015;-82
2023/10/05 09:19:33;;;;;;;3.55;1.40;;;;;;;;;;6282386;22;20148;-83
2023/10/05 09:24:29;;;;;;;6.65;2.00;;;;;;;;;;6310043;22;20015;-83
2023/10/05 09:27:09;;;;;;;3.58;1.80;;;;;;;;;;6281140;22;20064;-82
2023/10/05 09:29:36;;;;;;;4.20;2.05;;;;;;;;;;6282168;22;20019;-82
2023/10/05 09:32:08;;;;;;;6.40;1.92;;;;;;;;;;6309074;22;20022;-82
2023/10/05 09:34:34;;;;;;;4.15;1.60;;;;;;;;;;6310816;22;20111;-82
2023/10/05 09:37:10;;;;;;;7.00;2.85;;;;;;;;;;6258056;22;20336;-82
2023/10/05 09:39:43;;;;;;;6.65;2.05;;;;;;;;;;6313592;22;20367;-81
2023/10/05 09:42:14;;;;;;;6.18;1.40;;;;;;;;;;6314218;22;20020;-81
2023/10/05 09:44:43;;;;;;;5.18;1.90;;;;;;;;;;6313254;22;20011;-81
2023/10/05 09:47:12;;;;;;;5.10;2.35;;;;;;;;;;6283759;22;20023;-82
2023/10/05 09:49:39;;;;;;;6.20;1.42;;;;;;;;;;6286468;22;20023;-80
2023/10/05 09:52:08;;;;;;;6.50;1.98;;;;;;;;;;6258450;22;20085;-80
2023/10/05 09:54:36;;;;;;;4.22;1.67;;;;;;;;;;6287193;22;20011;-80
2023/10/05 09:57:10;;;;;;;5.75;1.63;;;;;;;;;;6262632;22;20011;-80
2023/10/05 09:59:41;;;;;;;5.38;2.17;;;;;;;;;;6288802;22;20379;-82
2023/10/05 10:02:16;;;;;;;6.47;2.47;;;;;;;;;;6263631;22;20011;-80
2023/10/05 10:04:43;;;;;;;4.55;1.70;;;;;;;;;;6264512;22;20019;-79
2023/10/05 10:07:15;;;;;;;6.55;1.98;;;;;;;;;;6315325;22;20015;-78
2023/10/05 10:09:44;;;;;;;6.72;1.92;;;;;;;;;;6285794;22;20019;-79
2023/10/05 10:12:11;;;;;;;8.07;2.47;;;;;;;;;;6286240;22;20447;-79
2023/10/05 10:14:41;;;;;;;5.60;1.80;;;;;;;;;;6257170;22;20060;-79
2023/10/05 10:17:24;;;;;;;5.70;1.60;;;;;;;;;;6279384;22;20429;-78
2023/10/05 10:19:55;;;;;;;3.83;2.05;;;;;;;;;;6306123;22;20011;-78
2023/10/05 10:22:28;;;;;;;7.18;1.60;;;;;;;;;;6278172;22;20014;-78
2023/10/05 10:24:56;;;;;;;6.10;1.80;;;;;;;;;;6276848;22;20051;-77
2023/10/05 10:27:28;;;;;;;3.72;1.48;;;;;;;;;;6278769;22;20011;-78
2023/10/05 10:29:56;;;;;;;3.60;1.30;;;;;;;;;;6279992;22;20070;-78
2023/10/05 10:32:24;;;;;;;6.70;1.75;;;;;;;;;;6278520;22;20019;-78
2023/10/05 10:34:55;;;;;;;5.13;2.15;;;;;;;;;;6280139;22;20018;-78
2023/10/05 10:37:42;;;;;;;4.88;2.25;;;;;;;;;;6281789;22;20027;-79
2023/10/05 10:42:51;;;;;;;8.10;1.95;;;;;;;;;;6307864;22;20386;-78
2023/10/05 10:45:33;;;;;;;5.20;1.88;;;;;;;;;;6280512;22;20119;-79
2023/10/05 10:48:14;;;;;;;8.63;2.08;;;;;;;;;;6279695;22;20065;-79
2023/10/05 10:50:40;;;;;;;7.25;2.53;;;;;;;;;;6281046;22;20546;-79
2023/10/05 10:53:16;;;;;;;4.70;1.67;;;;;;;;;;6287055;22;20022;-80
2023/10/05 10:55:45;;;;;;;6.07;2.08;;;;;;;;;;6281427;22;20039;-79
2023/10/05 10:58:13;;;;;;;5.70;1.70;;;;;;;;;;6309903;22;20073;-79
2023/10/05 11:03:39;;;;;;;6.18;1.75;;;;;;;;;;6305619;22;20019;-77
2023/10/05 11:06:05;;;;;;;5.15;1.88;;;;;;;;;;6278890;22;20043;-78
2023/10/05 11:08:34;;;;;;;4.97;1.85;;;;;;;;;;6292359;22;20025;-80
2023/10/05 11:11:19;;;;;;;5.45;2.25;;;;;;;;;;6287518;22;20018;-85
2023/10/05 11:13:54;;;;;;;5.75;1.70;;;;;;;;;;6266483;22;20016;-81
2023/10/05 11:16:21;;;;;;;6.82;1.70;;;;;;;;;;6320530;22;20018;-81
2023/10/05 11:18:56;;;;;;;5.22;1.80;;;;;;;;;;6325586;22;20007;-80
2023/10/05 11:21:25;;;;;;;3.00;1.33;;;;;;;;;;6323987;22;20012;-80
2023/10/05 11:23:59;;;;;;;4.18;1.48;;;;;;;;;;6295876;22;20066;-81
2023/10/05 11:26:33;;;;;;;6.63;2.30;;;;;;;;;;6319112;22;20012;-79
2023/10/05 11:29:00;;;;;;;6.03;1.77;;;;;;;;;;6320995;22;20041;-80
2023/10/05 11:31:26;;;;;;;7.18;2.10;;;;;;;;;;6323105;22;20011;-80
2023/10/05 11:33:53;;;;;;;4.50;2.33;;;;;;;;;;6322421;22;20030;-80
2023/10/05 11:36:27;;;;;;;5.95;1.77;;;;;;;;;;6319445;22;20015;-81
2023/10/05 11:38:57;;;;;;;4.03;1.65;;;;;;;;;;6320600;22;20015;-81
2023/10/05 11:41:25;;;;;;;7.95;2.20;;;;;;;;;;6319920;22;20093;-80
2023/10/05 11:43:53;;;;;;;5.97;1.58;;;;;;;;;;6320298;22;20019;-80
2023/10/05 11:46:26;;;;;;;4.25;1.35;;;;;;;;;;6319112;22;20050;-80
2023/10/05 11:48:55;;;;;;;4.32;0.95;;;;;;;;;;6319709;22;20322;-80
2023/10/05 11:51:37;;;;;;;3.70;1.55;;;;;;;;;;6290188;22;20042;-80
2023/10/05 11:54:04;;;;;;;4.75;1.65;;;;;;;;;;6289532;22;20067;-80
2023/10/05 11:56:33;;;;;;;3.20;1.63;;;;;;;;;;6312422;22;20011;-80
2023/10/05 11:59:00;;;;;;;5.32;1.75;;;;;;;;;;6287516;22;20012;-80
2023/10/05 12:01:32;;;;;;;3.13;1.70;;;;;;;;;;6313747;22;20064;-80
2023/10/05 12:03:58;;;;;;;4.20;1.33;;;;;;;;;;6283177;22;20015;-80
2023/10/05 12:06:25;;;;;;;3.22;1.52;;;;;;;;;;6284368;22;20512;-80
2023/10/05 12:09:00;;;;;;;5.95;1.95;;;;;;;;;;6309587;22;20610;-79
2023/10/05 12:11:26;;;;;;;5.75;2.35;;;;;;;;;;6282403;22;20011;-80
2023/10/05 12:13:56;;;;;;;4.38;1.90;;;;;;;;;;6309786;22;20470;-79
2023/10/05 12:16:26;;;;;;;5.60;2.10;;;;;;;;;;6310515;22;20007;-79
2023/10/05 12:18:54;;;;;;;7.68;2.25;;;;;;;;;;6284874;22;20018;-80
2023/10/05 12:21:21;;;;;;;6.90;2.20;;;;;;;;;;6312652;22;20042;-80
2023/10/05 12:23:47;;;;;;;5.47;2.65;;;;;;;;;;6262379;22;20018;-80
2023/10/05 12:26:15;;;;;;;6.40;2.33;;;;;;;;;;6316679;22;20019;-80
2023/10/05 12:28:43;;;;;;;6.32;2.00;;;;;;;;;;6317139;22;20015;-80
2023/10/05 12:31:12;;;;;;;8.20;2.75;;;;;;;;;;6317508;22;20015;-80
2023/10/05 12:33:42;;;;;;;7.22;1.85;;;;;;;;;;6319738;22;20011;-80
2023/10/05 12:36:11;;;;;;;4.68;1.90;;;;;;;;;;6319281;22;20011;-81
2023/10/05 12:38:39;;;;;;;5.53;2.28;;;;;;;;;;6293532;22;20034;-81
2023/10/05 12:41:14;;;;;;;4.88;2.45;;;;;;;;;;6292898;22;20588;-80
2023/10/05 12:43:41;;;;;;;4.70;1.85;;;;;;;;;;6323082;22;20022;-81
2023/10/05 12:46:10;;;;;;;5.45;2.17;;;;;;;;;;6321644;22;20083;-81
2023/10/05 12:48:40;;;;;;;5.97;1.70;;;;;;;;;;6296726;22;20015;-81
2023/10/05 12:51:08;;;;;;;7.00;2.42;;;;;;;;;;6297691;22;20029;-81
2023/10/05 12:53:38;;;;;;;6.00;2.80;;;;;;;;;;6323522;22;20092;-81
2023/10/05 12:56:05;;;;;;;5.35;1.75;;;;;;;;;;6324059;22;20069;-81
2023/10/05 12:58:32;;;;;;;5.30;2.25;;;;;;;;;;6298033;22;20012;-81
2023/10/05 13:01:12;;;;;;;11.80;2.35;;;;;;;;;;6297583;22;20011;-81
2023/10/05 13:03:39;;;;;;;5.30;1.50;;;;;;;;;;6298007;22;20019;-81
2023/10/05 13:06:10;;;;;;;3.95;2.03;;;;;;;;;;6323876;22;20340;-81
2023/10/05 13:08:36;;;;;;;4.63;1.52;;;;;;;;;;6295109;22;20067;-80
2023/10/05 13:11:03;;;;;;;7.13;1.95;;;;;;;;;;6287529;22;20011;-80
2023/10/05 13:13:29;;;;;;;3.92;1.45;;;;;;;;;;6294192;22;20049;-81
2023/10/05 13:15:55;;;;;;;5.32;2.00;;;;;;;;;;6323522;22;20011;-81
2023/10/05 13:18:25;;;;;;;3.55;1.45;;;;;;;;;;6296267;22;20012;-81
2023/10/05 13:20:53;;;;;;;6.22;1.60;;;;;;;;;;6323072;22;20066;-80
2023/10/05 13:23:22;;;;;;;3.97;1.60;;;;;;;;;;6323761;22;20038;-80
2023/10/05 13:25:48;;;;;;;4.25;2.05;;;;;;;;;;6294665;22;20015;-81
2023/10/05 13:28:16;;;;;;;4.32;1.55;;;;;;;;;;6292790;22;20023;-80
2023/10/05 13:30:43;;;;;;;5.07;1.58;;;;;;;;;;6295907;22;20019;-81
2023/10/05 13:33:21;;;;;;;5.50;1.50;;;;;;;;;;6322645;22;20019;-81
2023/10/05 13:35:47;;;;;;;3.65;1.13;;;;;;;;;;6326014;22;20046;-81
2023/10/05 13:38:13;;;;;;;4.85;1.80;;;;;;;;;;6324400;22;20016;-80
2023/10/05 13:40:57;;;;;;;6.70;1.60;;;;;;;;;;6296255;22;20018;-80
2023/10/05 13:43:27;;;;;;;4.05;1.30;;;;;;;;;;6293325;22;20015;-79
2023/10/05 13:45:53;;;;;;;3.85;1.67;;;;;;;;;;6320762;22;20026;-80
2023/10/05 13:48:19;;;;;;;6.80;1.88;;;;;;;;;;6294364;22;20041;-81
2023/10/05 13:50:49;;;;;;;3.25;1.50;;;;;;;;;;6296129;22;20014;-81
2023/10/05 13:53:16;;;;;;;8.95;1.75;;;;;;;;;;6324318;22;20011;-80
2023/10/05 13:55:42;;;;;;;4.47;1.60;;;;;;;;;;6325690;22;20324;-80
2023/10/05 13:58:11;;;;;;;4.25;1.63;;;;;;;;;;6323823;22;20015;-81
2023/10/05 14:00:40;;;;;;;2.95;1.20;;;;;;;;;;6324301;22;20082;-80
2023/10/05 14:03:08;;;;;;;5.05;1.80;;;;;;;;;;6319537;22;20023;-80
2023/10/05 14:05:51;;;;;;;3.17;1.10;;;;;;;;;;6320594;22;20076;-80
2023/10/05 14:08:17;;;;;;;4.53;1.40;;;;;;;;;;6320693;22;20015;-80
2023/10/05 14:10:43;;;;;;;6.32;1.50;;;;;;;;;;6317686;22;20015;-80
2023/10/05 14:13:09;;;;;;;3.85;1.50;;;;;;;;;;6317138;22;20025;-80
2023/10/05 14:15:38;;;;;;;3.20;1.40;;;;;;;;;;6288299;22;20011;-80
2023/10/05 14:18:06;;;;;;;3.72;1.30;;;;;;;;;;6317709;22;20007;-80
2023/10/05 14:20:36;;;;;;;5.70;1.20;;;;;;;;;;6318640;22;21011;-80
2023/10/05 14:23:04;;;;;;;5.30;2.35;;;;;;;;;;6319505;22;20015;-81
2023/10/05 14:25:31;;;;;;;5.93;1.60;;;;;;;;;;6317932;22;20430;-80
2023/10/05 14:27:57;;;;;;;3.72;1.70;;;;;;;;;;6293813;22;20214;-80
2023/10/05 14:30:24;;;;;;;4.68;1.17;;;;;;;;;;6293502;22;20065;-80
2023/10/05 14:32:50;;;;;;;4.10;1.30;;;;;;;;;;6291393;22;20015;-81
2023/10/05 14:35:20;;;;;;;5.22;1.40;;;;;;;;;;6267527;22;20019;-81
2023/10/05 14:37:52;;;;;;;3.08;1.50;;;;;;;;;;6292304;22;20038;-80
2023/10/05 14:40:26;;;;;;;6.05;1.63;;;;;;;;;;6291829;22;20016;-80
2023/10/05 14:42:53;;;;;;;4.22;1.48;;;;;;;;;;6289605;22;20019;-80
2023/10/05 14:45:21;;;;;;;8.25;2.50;;;;;;;;;;6289954;22;20015;-80
2023/10/05 14:47:57;;;;;;;3.47;1.33;;;;;;;;;;6292296;22;20016;-80
2023/10/05 14:50:26;;;;;;;5.32;1.65;;;;;;;;;;6291662;22;20007;-80
2023/10/05 14:52:52;;;;;;;6.90;1.55;;;;;;;;;;6318487;22;20018;-80
2023/10/05 14:55:20;;;;;;;5.32;1.55;;;;;;;;;;6288911;22;20022;-81
2023/10/05 14:57:46;;;;;;;4.55;1.25;;;;;;;;;;6293370;22;20022;-80
2023/10/05 15:00:14;;;;;;;5.03;1.63;;;;;;;;;;6291462;22;20094;-80
2023/10/05 15:02:42;;;;;;;4.78;1.35;;;;;;;;;;6318399;22;20456;-80
2023/10/05 15:05:10;;;;;;;6.05;1.42;;;;;;;;;;6291611;22;20496;-80
2023/10/05 15:07:42;;;;;;;6.72;1.08;;;;;;;;;;6314351;22;20039;-80
2023/10/05 15:10:19;;;;;;;4.68;1.05;;;;;;;;;;6317974;22;20076;-81
2023/10/05 15:12:46;;;;;;;2.67;1.20;;;;;;;;;;6319245;22;20016;-80
2023/10/05 15:15:15;;;;;;;3.92;1.10;;;;;;;;;;6316181;22;20086;-80
2023/10/05 15:17:41;;;;;;;3.03;1.08;;;;;;;;;;6290755;22;20525;-80